sensor_id;sensor_type;location;lat;lon;timestamp;temperature;humidity
22558;DHT22;11445;53.816;8.902;2022-10-03T00:01:31;13.40;99.90
22558;DHT22;11445;53.816;8.902;2022-10-03T00:04:15;13.40;99.90
22558;DHT22;11445;53.816;8.902;2022-10-03T00:06:53;13.40;99.90
22558;DHT22;11445;53.816;8.902;2022-10-03T00:09:32;13.40;99.90
22558;DHT22;11445;53.816;8.902;2022-10-03T00:12:10;13.40;99.90
22558;DHT22;11445;53.816;8.902;2022-10-03T00:14:49;13.40;99.90
22558;DHT22;11445;53.816;8.902;2022-10-03T00:17:23;13.40;99.90
22558;DHT22;11445;53.816;8.902;2022-10-03T00:19:59;13.40;99.90
22558;DHT22;11445;53.816;8.902;2022-10-03T00:22:36;13.40;99.90
22558;DHT22;11445;53.816;8.902;2022-10-03T00:25:26;13.40;99.90
22558;DHT22;11445;53.816;8.902;2022-10-03T00:28:09;13.50;99.90
22558;DHT22;11445;53.816;8.902;2022-10-03T00:30:51;13.50;99.90
22558;DHT22;11445;53.816;8.902;2022-10-03T00:33:25;13.50;99.90
22558;DHT22;11445;53.816;8.902;2022-10-03T00:36:01;13.50;99.90
22558;DHT22;11445;53.816;8.902;2022-10-03T00:38:51;13.40;99.90
22558;DHT22;11445;53.816;8.902;2022-10-03T00:41:41;13.40;99.90
22558;DHT22;11445;53.816;8.902;2022-10-03T00:44:34;13.40;99.90
22558;DHT22;11445;53.816;8.902;2022-10-03T00:50:40;13.40;99.90
22558;DHT22;11445;53.816;8.902;2022-10-03T00:53:26;13.40;99.90
22558;DHT22;11445;53.816;8.902;2022-10-03T00:56:12;13.40;99.90
22558;DHT22;11445;53.816;8.902;2022-10-03T00:58:59;13.40;99.90
22558;DHT22;11445;53.816;8.902;2022-10-03T01:01:34;13.40;99.90
22558;DHT22;11445;53.816;8.902;2022-10-03T01:04:12;13.50;99.90
22558;DHT22;11445;53.816;8.902;2022-10-03T01:06:46;13.50;99.90
22558;DHT22;11445;53.816;8.902;2022-10-03T01:09:41;13.30;99.90
22558;DHT22;11445;53.816;8.902;2022-10-03T01:12:30;13.10;99.90
22558;DHT22;11445;53.816;8.902;2022-10-03T01:15:09;13.00;99.90
22558;DHT22;11445;53.816;8.902;2022-10-03T01:17:47;12.90;99.90
22558;DHT22;11445;53.816;8.902;2022-10-03T01:20:27;12.80;99.90
22558;DHT22;11445;53.816;8.902;2022-10-03T01:23:37;12.80;99.90
22558;DHT22;11445;53.816;8.902;2022-10-03T01:26:22;12.90;99.90
22558;DHT22;11445;53.816;8.902;2022-10-03T01:28:57;13.00;99.90
22558;DHT22;11445;53.816;8.902;2022-10-03T01:31:52;13.00;99.90
22558;DHT22;11445;53.816;8.902;2022-10-03T01:34:27;13.10;99.90
22558;DHT22;11445;53.816;8.902;2022-10-03T01:37:04;13.10;99.90
22558;DHT22;11445;53.816;8.902;2022-10-03T01:39:40;13.00;99.90
22558;DHT22;11445;53.816;8.902;2022-10-03T01:42:13;13.00;99.90
22558;DHT22;11445;53.816;8.902;2022-10-03T01:44:56;13.10;99.90
22558;DHT22;11445;53.816;8.902;2022-10-03T01:47:33;13.10;99.90
22558;DHT22;11445;53.816;8.902;2022-10-03T01:50:17;13.10;99.90
22558;DHT22;11445;53.816;8.902;2022-10-03T01:52:53;13.10;99.90
22558;DHT22;11445;53.816;8.902;2022-10-03T01:55:30;13.10;99.90
22558;DHT22;11445;53.816;8.902;2022-10-03T01:58:02;13.10;99.90
22558;DHT22;11445;53.816;8.902;2022-10-03T02:00:38;13.00;99.90
22558;DHT22;11445;53.816;8.902;2022-10-03T02:03:14;13.00;99.90
22558;DHT22;11445;53.816;8.902;2022-10-03T02:05:51;13.00;99.90
22558;DHT22;11445;53.816;8.902;2022-10-03T02:08:26;12.90;99.90
22558;DHT22;11445;53.816;8.902;2022-10-03T02:10:59;12.90;99.90
22558;DHT22;11445;53.816;8.902;2022-10-03T02:13:37;12.90;99.90
22558;DHT22;11445;53.816;8.902;2022-10-03T02:16:10;12.90;99.90
22558;DHT22;11445;53.816;8.902;2022-10-03T02:18:46;12.90;99.90
22558;DHT22;11445;53.816;8.902;2022-10-03T02:21:18;13.00;99.90
22558;DHT22;11445;53.816;8.902;2022-10-03T02:23:48;13.00;99.90
22558;DHT22;11445;53.816;8.902;2022-10-03T02:26:55;13.00;99.90
22558;DHT22;11445;53.816;8.902;2022-10-03T02:30:16;13.10;99.90
22558;DHT22;11445;53.816;8.902;2022-10-03T02:36:31;13.10;99.90
22558;DHT22;11445;53.816;8.902;2022-10-03T02:42:49;13.00;99.90
22558;DHT22;11445;53.816;8.902;2022-10-03T02:54:50;13.10;99.90
22558;DHT22;11445;53.816;8.902;2022-10-03T03:00:19;13.10;99.90
22558;DHT22;11445;53.816;8.902;2022-10-03T03:03:28;13.10;99.90
22558;DHT22;11445;53.816;8.902;2022-10-03T03:12:30;13.20;99.90
22558;DHT22;11445;53.816;8.902;2022-10-03T03:18:10;13.20;99.90
22558;DHT22;11445;53.816;8.902;2022-10-03T03:20:50;13.20;99.90
22558;DHT22;11445;53.816;8.902;2022-10-03T03:23:44;13.20;99.90
22558;DHT22;11445;53.816;8.902;2022-10-03T03:26:37;13.20;99.90
22558;DHT22;11445;53.816;8.902;2022-10-03T03:29:20;13.20;99.90
22558;DHT22;11445;53.816;8.902;2022-10-03T03:31:56;13.30;99.90
22558;DHT22;11445;53.816;8.902;2022-10-03T03:34:33;13.30;99.90
22558;DHT22;11445;53.816;8.902;2022-10-03T03:37:08;13.30;99.90
22558;DHT22;11445;53.816;8.902;2022-10-03T03:39:53;13.30;99.90
22558;DHT22;11445;53.816;8.902;2022-10-03T03:42:46;13.30;99.90
22558;DHT22;11445;53.816;8.902;2022-10-03T03:45:43;13.30;99.90
22558;DHT22;11445;53.816;8.902;2022-10-03T03:48:21;13.30;99.90
22558;DHT22;11445;53.816;8.902;2022-10-03T03:51:05;13.30;99.90
22558;DHT22;11445;53.816;8.902;2022-10-03T03:59:49;13.40;99.90
22558;DHT22;11445;53.816;8.902;2022-10-03T04:02:29;13.40;99.90
22558;DHT22;11445;53.816;8.902;2022-10-03T04:05:18;13.30;99.90
22558;DHT22;11445;53.816;8.902;2022-10-03T04:08:03;13.30;99.90
22558;DHT22;11445;53.816;8.902;2022-10-03T04:10:45;13.30;99.90
22558;DHT22;11445;53.816;8.902;2022-10-03T04:13:28;13.20;99.90
22558;DHT22;11445;53.816;8.902;2022-10-03T04:19:18;13.20;99.90
22558;DHT22;11445;53.816;8.902;2022-10-03T04:22:02;13.10;99.90
22558;DHT22;11445;53.816;8.902;2022-10-03T04:24:58;13.20;99.90
22558;DHT22;11445;53.816;8.902;2022-10-03T04:27:53;13.10;99.90
22558;DHT22;11445;53.816;8.902;2022-10-03T04:30:31;13.10;99.90
22558;DHT22;11445;53.816;8.902;2022-10-03T04:33:15;13.10;99.90
22558;DHT22;11445;53.816;8.902;2022-10-03T04:36:05;13.10;99.90
22558;DHT22;11445;53.816;8.902;2022-10-03T04:38:42;13.10;99.90
22558;DHT22;11445;53.816;8.902;2022-10-03T04:41:20;13.10;99.90
22558;DHT22;11445;53.816;8.902;2022-10-03T04:44:00;13.10;99.90
22558;DHT22;11445;53.816;8.902;2022-10-03T04:46:32;13.10;99.90
22558;DHT22;11445;53.816;8.902;2022-10-03T04:49:10;13.20;99.90
22558;DHT22;11445;53.816;8.902;2022-10-03T04:51:48;13.10;99.90
22558;DHT22;11445;53.816;8.902;2022-10-03T04:54:29;13.20;99.90
22558;DHT22;11445;53.816;8.902;2022-10-03T04:57:05;13.20;99.90
22558;DHT22;11445;53.816;8.902;2022-10-03T04:59:45;13.20;99.90
22558;DHT22;11445;53.816;8.902;2022-10-03T05:02:24;13.20;99.90
22558;DHT22;11445;53.816;8.902;2022-10-03T05:07:57;13.20;99.90
22558;DHT22;11445;53.816;8.902;2022-10-03T05:10:39;13.20;99.90
22558;DHT22;11445;53.816;8.902;2022-10-03T05:13:14;13.20;99.90
22558;DHT22;11445;53.816;8.902;2022-10-03T05:15:43;13.20;99.90
22558;DHT22;11445;53.816;8.902;2022-10-03T05:18:19;13.20;99.90
22558;DHT22;11445;53.816;8.902;2022-10-03T05:20:54;13.20;99.90
22558;DHT22;11445;53.816;8.902;2022-10-03T05:23:46;13.10;99.90
22558;DHT22;11445;53.816;8.902;2022-10-03T05:26:22;13.10;99.90
22558;DHT22;11445;53.816;8.902;2022-10-03T05:28:58;13.00;99.90
22558;DHT22;11445;53.816;8.902;2022-10-03T05:31:36;12.90;99.90
22558;DHT22;11445;53.816;8.902;2022-10-03T05:34:11;12.90;99.90
22558;DHT22;11445;53.816;8.902;2022-10-03T05:37:03;12.80;99.90
22558;DHT22;11445;53.816;8.902;2022-10-03T05:39:39;12.80;99.90
22558;DHT22;11445;53.816;8.902;2022-10-03T05:42:37;12.80;99.90
22558;DHT22;11445;53.816;8.902;2022-10-03T05:45:19;12.80;99.90
22558;DHT22;11445;53.816;8.902;2022-10-03T05:47:50;12.80;99.90
22558;DHT22;11445;53.816;8.902;2022-10-03T05:50:38;12.80;99.90
22558;DHT22;11445;53.816;8.902;2022-10-03T05:53:28;12.90;99.90
22558;DHT22;11445;53.816;8.902;2022-10-03T05:56:07;12.90;99.90
22558;DHT22;11445;53.816;8.902;2022-10-03T05:58:49;12.90;99.90
22558;DHT22;11445;53.816;8.902;2022-10-03T06:01:46;12.90;99.90
22558;DHT22;11445;53.816;8.902;2022-10-03T06:04:45;12.90;99.90
22558;DHT22;11445;53.816;8.902;2022-10-03T06:07:22;12.90;99.90
22558;DHT22;11445;53.816;8.902;2022-10-03T06:12:54;12.90;99.90
22558;DHT22;11445;53.816;8.902;2022-10-03T06:15:38;12.90;99.90
22558;DHT22;11445;53.816;8.902;2022-10-03T06:18:43;12.90;99.90
22558;DHT22;11445;53.816;8.902;2022-10-03T06:21:54;12.90;99.90
22558;DHT22;11445;53.816;8.902;2022-10-03T06:28:00;12.90;99.90
22558;DHT22;11445;53.816;8.902;2022-10-03T06:30:50;12.80;99.90
22558;DHT22;11445;53.816;8.902;2022-10-03T06:37:02;12.80;99.90
22558;DHT22;11445;53.816;8.902;2022-10-03T06:43:00;12.90;99.90
22558;DHT22;11445;53.816;8.902;2022-10-03T06:46:00;12.90;99.90
22558;DHT22;11445;53.816;8.902;2022-10-03T06:51:54;13.00;99.90
22558;DHT22;11445;53.816;8.902;2022-10-03T07:01:12;13.20;99.90
22558;DHT22;11445;53.816;8.902;2022-10-03T07:04:19;13.30;99.90
22558;DHT22;11445;53.816;8.902;2022-10-03T07:07:23;13.40;99.90
22558;DHT22;11445;53.816;8.902;2022-10-03T07:10:07;13.40;99.90
22558;DHT22;11445;53.816;8.902;2022-10-03T07:22:16;13.70;99.90
22558;DHT22;11445;53.816;8.902;2022-10-03T07:25:24;13.80;99.90
22558;DHT22;11445;53.816;8.902;2022-10-03T07:31:00;13.80;99.90
22558;DHT22;11445;53.816;8.902;2022-10-03T07:36:44;13.90;99.90
22558;DHT22;11445;53.816;8.902;2022-10-03T07:40:08;14.00;99.90
22558;DHT22;11445;53.816;8.902;2022-10-03T07:45:44;14.10;99.90
22558;DHT22;11445;53.816;8.902;2022-10-03T07:51:22;14.30;99.90
22558;DHT22;11445;53.816;8.902;2022-10-03T07:54:24;14.40;99.90
22558;DHT22;11445;53.816;8.902;2022-10-03T08:00:07;14.50;99.90
22558;DHT22;11445;53.816;8.902;2022-10-03T08:05:50;14.60;99.90
22558;DHT22;11445;53.816;8.902;2022-10-03T08:09:06;14.70;99.90
22558;DHT22;11445;53.816;8.902;2022-10-03T08:12:14;14.70;99.90
22558;DHT22;11445;53.816;8.902;2022-10-03T08:14:56;14.70;99.90
22558;DHT22;11445;53.816;8.902;2022-10-03T08:20:39;14.70;99.90
22558;DHT22;11445;53.816;8.902;2022-10-03T08:26:15;14.70;99.90
22558;DHT22;11445;53.816;8.902;2022-10-03T08:32:10;14.70;99.90
22558;DHT22;11445;53.816;8.902;2022-10-03T08:35:02;14.80;99.90
22558;DHT22;11445;53.816;8.902;2022-10-03T08:47:08;15.30;99.90
22558;DHT22;11445;53.816;8.902;2022-10-03T08:50:04;15.40;99.90
22558;DHT22;11445;53.816;8.902;2022-10-03T08:52:40;15.50;99.90
22558;DHT22;11445;53.816;8.902;2022-10-03T08:55:44;15.50;99.90
22558;DHT22;11445;53.816;8.902;2022-10-03T08:58:45;15.50;99.90
22558;DHT22;11445;53.816;8.902;2022-10-03T09:01:33;15.50;99.90
22558;DHT22;11445;53.816;8.902;2022-10-03T09:04:46;15.40;99.90
22558;DHT22;11445;53.816;8.902;2022-10-03T09:07:30;15.30;99.90
22558;DHT22;11445;53.816;8.902;2022-10-03T09:10:26;15.30;99.90
22558;DHT22;11445;53.816;8.902;2022-10-03T09:19:26;15.40;99.90
22558;DHT22;11445;53.816;8.902;2022-10-03T09:22:31;15.40;99.90
22558;DHT22;11445;53.816;8.902;2022-10-03T09:25:16;15.40;99.90
22558;DHT22;11445;53.816;8.902;2022-10-03T09:31:02;15.50;99.90
22558;DHT22;11445;53.816;8.902;2022-10-03T09:34:00;15.50;99.90
22558;DHT22;11445;53.816;8.902;2022-10-03T09:37:10;15.50;99.90
22558;DHT22;11445;53.816;8.902;2022-10-03T09:43:06;15.50;99.90
22558;DHT22;11445;53.816;8.902;2022-10-03T09:46:02;15.50;99.90
22558;DHT22;11445;53.816;8.902;2022-10-03T09:51:36;15.50;99.90
22558;DHT22;11445;53.816;8.902;2022-10-03T09:57:46;15.70;99.90
22558;DHT22;11445;53.816;8.902;2022-10-03T10:00:19;15.90;99.90
22558;DHT22;11445;53.816;8.902;2022-10-03T10:03:16;15.90;99.90
22558;DHT22;11445;53.816;8.902;2022-10-03T10:06:10;16.00;99.90
22558;DHT22;11445;53.816;8.902;2022-10-03T10:09:21;15.90;99.90
22558;DHT22;11445;53.816;8.902;2022-10-03T10:15:38;16.00;99.90
22558;DHT22;11445;53.816;8.902;2022-10-03T10:18:43;15.90;99.90
22558;DHT22;11445;53.816;8.902;2022-10-03T10:21:41;15.90;99.90
22558;DHT22;11445;53.816;8.902;2022-10-03T10:24:38;15.90;99.90
22558;DHT22;11445;53.816;8.902;2022-10-03T10:27:51;15.90;99.90
22558;DHT22;11445;53.816;8.902;2022-10-03T10:30:52;15.80;99.90
22558;DHT22;11445;53.816;8.902;2022-10-03T10:37:02;15.80;99.90
22558;DHT22;11445;53.816;8.902;2022-10-03T10:43:35;15.80;99.90
22558;DHT22;11445;53.816;8.902;2022-10-03T10:46:34;15.90;99.90
22558;DHT22;11445;53.816;8.902;2022-10-03T11:05:43;16.50;99.90
22558;DHT22;11445;53.816;8.902;2022-10-03T11:12:10;16.50;99.90
22558;DHT22;11445;53.816;8.902;2022-10-03T11:18:44;16.20;99.90
22558;DHT22;11445;53.816;8.902;2022-10-03T11:21:50;16.10;99.90
22558;DHT22;11445;53.816;8.902;2022-10-03T11:34:50;16.00;99.90
22558;DHT22;11445;53.816;8.902;2022-10-03T11:37:40;16.10;99.90
22558;DHT22;11445;53.816;8.902;2022-10-03T11:40:28;16.20;99.90
22558;DHT22;11445;53.816;8.902;2022-10-03T11:43:25;16.30;99.90
22558;DHT22;11445;53.816;8.902;2022-10-03T11:45:57;16.40;99.90
22558;DHT22;11445;53.816;8.902;2022-10-03T11:48:37;16.40;99.90
22558;DHT22;11445;53.816;8.902;2022-10-03T11:51:08;16.40;99.90
22558;DHT22;11445;53.816;8.902;2022-10-03T11:53:44;16.50;99.90
22558;DHT22;11445;53.816;8.902;2022-10-03T11:56:35;16.50;99.90
22558;DHT22;11445;53.816;8.902;2022-10-03T11:59:35;16.50;99.90
22558;DHT22;11445;53.816;8.902;2022-10-03T12:02:13;16.50;99.90
22558;DHT22;11445;53.816;8.902;2022-10-03T12:04:56;16.50;99.90
22558;DHT22;11445;53.816;8.902;2022-10-03T12:07:41;16.50;99.90
22558;DHT22;11445;53.816;8.902;2022-10-03T12:10:39;16.60;99.90
22558;DHT22;11445;53.816;8.902;2022-10-03T12:13:10;16.60;99.90
22558;DHT22;11445;53.816;8.902;2022-10-03T12:15:42;16.60;99.90
22558;DHT22;11445;53.816;8.902;2022-10-03T12:18:15;16.50;99.90
22558;DHT22;11445;53.816;8.902;2022-10-03T12:21:06;16.50;99.90
22558;DHT22;11445;53.816;8.902;2022-10-03T12:26:49;16.40;99.90
22558;DHT22;11445;53.816;8.902;2022-10-03T12:29:20;16.40;99.90
22558;DHT22;11445;53.816;8.902;2022-10-03T12:32:01;16.40;99.90
22558;DHT22;11445;53.816;8.902;2022-10-03T12:34:37;16.40;99.90
22558;DHT22;11445;53.816;8.902;2022-10-03T12:37:18;16.40;99.90
22558;DHT22;11445;53.816;8.902;2022-10-03T12:39:59;16.30;99.90
22558;DHT22;11445;53.816;8.902;2022-10-03T12:42:33;16.40;99.90
22558;DHT22;11445;53.816;8.902;2022-10-03T12:45:08;16.40;99.90
22558;DHT22;11445;53.816;8.902;2022-10-03T12:47:58;16.40;99.90
22558;DHT22;11445;53.816;8.902;2022-10-03T12:50:37;16.40;99.90
22558;DHT22;11445;53.816;8.902;2022-10-03T12:53:22;16.30;99.90
22558;DHT22;11445;53.816;8.902;2022-10-03T12:59:07;16.20;99.90
22558;DHT22;11445;53.816;8.902;2022-10-03T13:07:43;16.00;99.90
22558;DHT22;11445;53.816;8.902;2022-10-03T13:10:23;15.90;99.90
22558;DHT22;11445;53.816;8.902;2022-10-03T13:13:00;15.90;99.90
22558;DHT22;11445;53.816;8.902;2022-10-03T13:15:58;15.90;99.90
22558;DHT22;11445;53.816;8.902;2022-10-03T13:18:45;16.00;99.90
22558;DHT22;11445;53.816;8.902;2022-10-03T13:21:18;16.10;99.90
22558;DHT22;11445;53.816;8.902;2022-10-03T13:23:50;16.20;99.90
22558;DHT22;11445;53.816;8.902;2022-10-03T13:26:22;16.20;99.90
22558;DHT22;11445;53.816;8.902;2022-10-03T13:29:12;16.30;99.90
22558;DHT22;11445;53.816;8.902;2022-10-03T13:31:59;16.30;99.90
22558;DHT22;11445;53.816;8.902;2022-10-03T13:34:32;16.30;99.90
22558;DHT22;11445;53.816;8.902;2022-10-03T13:37:05;16.30;99.90
22558;DHT22;11445;53.816;8.902;2022-10-03T13:39:43;16.40;99.90
22558;DHT22;11445;53.816;8.902;2022-10-03T13:42:15;16.40;99.90
22558;DHT22;11445;53.816;8.902;2022-10-03T13:44:48;16.30;99.90
22558;DHT22;11445;53.816;8.902;2022-10-03T13:47:40;16.30;99.90
22558;DHT22;11445;53.816;8.902;2022-10-03T13:50:15;16.30;99.90
22558;DHT22;11445;53.816;8.902;2022-10-03T13:52:47;16.40;99.90
22558;DHT22;11445;53.816;8.902;2022-10-03T13:55:22;16.30;99.90
22558;DHT22;11445;53.816;8.902;2022-10-03T13:58:03;16.30;99.90
22558;DHT22;11445;53.816;8.902;2022-10-03T14:00:38;16.30;99.90
22558;DHT22;11445;53.816;8.902;2022-10-03T14:03:21;16.30;99.90
22558;DHT22;11445;53.816;8.902;2022-10-03T14:06:02;16.30;99.90
22558;DHT22;11445;53.816;8.902;2022-10-03T14:09:01;16.30;99.90
22558;DHT22;11445;53.816;8.902;2022-10-03T14:11:43;16.30;99.90
22558;DHT22;11445;53.816;8.902;2022-10-03T14:17:24;16.30;99.90
22558;DHT22;11445;53.816;8.902;2022-10-03T14:20:05;16.30;99.90
22558;DHT22;11445;53.816;8.902;2022-10-03T14:22:46;16.20;99.90
22558;DHT22;11445;53.816;8.902;2022-10-03T14:25:20;16.20;99.90
22558;DHT22;11445;53.816;8.902;2022-10-03T14:27:51;16.30;99.90
22558;DHT22;11445;53.816;8.902;2022-10-03T14:30:20;16.20;99.90
22558;DHT22;11445;53.816;8.902;2022-10-03T14:33:01;16.20;99.90
22558;DHT22;11445;53.816;8.902;2022-10-03T14:35:44;16.20;99.90
22558;DHT22;11445;53.816;8.902;2022-10-03T14:38:21;16.20;99.90
22558;DHT22;11445;53.816;8.902;2022-10-03T14:41:16;16.20;99.90
22558;DHT22;11445;53.816;8.902;2022-10-03T14:43:48;16.10;99.90
22558;DHT22;11445;53.816;8.902;2022-10-03T14:46:18;16.10;99.90
22558;DHT22;11445;53.816;8.902;2022-10-03T14:48:48;16.10;99.90
22558;DHT22;11445;53.816;8.902;2022-10-03T14:51:21;16.20;99.90
22558;DHT22;11445;53.816;8.902;2022-10-03T14:53:52;16.30;99.90
22558;DHT22;11445;53.816;8.902;2022-10-03T14:56:21;16.30;99.90
22558;DHT22;11445;53.816;8.902;2022-10-03T14:58:52;16.40;99.90
22558;DHT22;11445;53.816;8.902;2022-10-03T15:01:22;16.30;99.90
22558;DHT22;11445;53.816;8.902;2022-10-03T15:03:56;16.30;99.90
22558;DHT22;11445;53.816;8.902;2022-10-03T15:06:59;16.20;99.90
22558;DHT22;11445;53.816;8.902;2022-10-03T15:09:33;16.10;99.90
22558;DHT22;11445;53.816;8.902;2022-10-03T15:12:10;16.00;99.90
22558;DHT22;11445;53.816;8.902;2022-10-03T15:14:41;16.00;99.90
22558;DHT22;11445;53.816;8.902;2022-10-03T15:17:19;15.90;99.90
22558;DHT22;11445;53.816;8.902;2022-10-03T15:19:50;15.80;99.90
22558;DHT22;11445;53.816;8.902;2022-10-03T15:22:28;15.70;99.90
22558;DHT22;11445;53.816;8.902;2022-10-03T15:25:02;15.70;99.90
22558;DHT22;11445;53.816;8.902;2022-10-03T15:27:31;15.60;99.90
22558;DHT22;11445;53.816;8.902;2022-10-03T15:30:02;15.60;99.90
22558;DHT22;11445;53.816;8.902;2022-10-03T15:32:33;15.70;99.90
22558;DHT22;11445;53.816;8.902;2022-10-03T15:35:02;15.70;99.90
22558;DHT22;11445;53.816;8.902;2022-10-03T15:37:34;15.60;99.90
22558;DHT22;11445;53.816;8.902;2022-10-03T15:40:06;15.70;99.90
22558;DHT22;11445;53.816;8.902;2022-10-03T15:42:47;15.60;99.90
22558;DHT22;11445;53.816;8.902;2022-10-03T15:45:23;15.60;99.90
22558;DHT22;11445;53.816;8.902;2022-10-03T15:47:54;15.50;99.90
22558;DHT22;11445;53.816;8.902;2022-10-03T15:50:24;15.50;99.90
22558;DHT22;11445;53.816;8.902;2022-10-03T15:52:56;15.50;99.90
22558;DHT22;11445;53.816;8.902;2022-10-03T15:55:29;15.40;99.90
22558;DHT22;11445;53.816;8.902;2022-10-03T15:58:04;15.40;99.90
22558;DHT22;11445;53.816;8.902;2022-10-03T16:00:35;15.30;99.90
22558;DHT22;11445;53.816;8.902;2022-10-03T16:03:12;15.40;99.90
22558;DHT22;11445;53.816;8.902;2022-10-03T16:05:50;15.30;99.90
22558;DHT22;11445;53.816;8.902;2022-10-03T16:08:25;15.30;99.90
22558;DHT22;11445;53.816;8.902;2022-10-03T16:11:01;15.30;99.90
22558;DHT22;11445;53.816;8.902;2022-10-03T16:13:36;15.30;99.90
22558;DHT22;11445;53.816;8.902;2022-10-03T16:16:12;15.30;99.90
22558;DHT22;11445;53.816;8.902;2022-10-03T16:18:49;15.30;99.90
22558;DHT22;11445;53.816;8.902;2022-10-03T16:24:28;15.20;99.90
22558;DHT22;11445;53.816;8.902;2022-10-03T16:27:04;15.20;99.90
22558;DHT22;11445;53.816;8.902;2022-10-03T16:29:34;15.20;99.90
22558;DHT22;11445;53.816;8.902;2022-10-03T16:32:05;15.20;99.90
22558;DHT22;11445;53.816;8.902;2022-10-03T16:34:35;15.10;99.90
22558;DHT22;11445;53.816;8.902;2022-10-03T16:37:16;15.10;99.90
22558;DHT22;11445;53.816;8.902;2022-10-03T16:39:52;15.10;99.90
22558;DHT22;11445;53.816;8.902;2022-10-03T16:42:23;15.10;99.90
22558;DHT22;11445;53.816;8.902;2022-10-03T16:44:54;15.00;99.90
22558;DHT22;11445;53.816;8.902;2022-10-03T16:47:32;15.00;99.90
22558;DHT22;11445;53.816;8.902;2022-10-03T16:50:00;15.00;99.90
22558;DHT22;11445;53.816;8.902;2022-10-03T16:52:47;15.00;99.90
22558;DHT22;11445;53.816;8.902;2022-10-03T16:55:21;15.00;99.90
22558;DHT22;11445;53.816;8.902;2022-10-03T16:57:54;14.90;99.90
22558;DHT22;11445;53.816;8.902;2022-10-03T17:00:25;14.90;99.90
22558;DHT22;11445;53.816;8.902;2022-10-03T17:02:55;14.90;99.90
22558;DHT22;11445;53.816;8.902;2022-10-03T17:05:22;14.80;99.90
22558;DHT22;11445;53.816;8.902;2022-10-03T17:07:52;14.80;99.90
22558;DHT22;11445;53.816;8.902;2022-10-03T17:10:36;14.80;99.90
22558;DHT22;11445;53.816;8.902;2022-10-03T17:13:10;14.80;99.90
22558;DHT22;11445;53.816;8.902;2022-10-03T17:15:45;14.70;99.90
22558;DHT22;11445;53.816;8.902;2022-10-03T17:18:21;14.70;99.90
22558;DHT22;11445;53.816;8.902;2022-10-03T17:20:54;14.70;99.90
22558;DHT22;11445;53.816;8.902;2022-10-03T17:23:27;14.60;99.90
22558;DHT22;11445;53.816;8.902;2022-10-03T17:25:58;14.60;99.90
22558;DHT22;11445;53.816;8.902;2022-10-03T17:28:31;14.60;99.90
22558;DHT22;11445;53.816;8.902;2022-10-03T17:31:02;14.60;99.90
22558;DHT22;11445;53.816;8.902;2022-10-03T17:33:36;14.60;99.90
22558;DHT22;11445;53.816;8.902;2022-10-03T17:36:35;14.60;99.90
22558;DHT22;11445;53.816;8.902;2022-10-03T17:39:05;14.60;99.90
22558;DHT22;11445;53.816;8.902;2022-10-03T17:41:41;14.50;99.90
22558;DHT22;11445;53.816;8.902;2022-10-03T17:44:20;14.50;99.90
22558;DHT22;11445;53.816;8.902;2022-10-03T17:46:58;14.40;99.90
22558;DHT22;11445;53.816;8.902;2022-10-03T17:49:38;14.40;99.90
22558;DHT22;11445;53.816;8.902;2022-10-03T17:52:12;14.40;99.90
22558;DHT22;11445;53.816;8.902;2022-10-03T17:54:43;14.40;99.90
22558;DHT22;11445;53.816;8.902;2022-10-03T17:57:19;14.30;99.90
22558;DHT22;11445;53.816;8.902;2022-10-03T17:59:55;14.30;99.90
22558;DHT22;11445;53.816;8.902;2022-10-03T18:02:30;14.30;99.90
22558;DHT22;11445;53.816;8.902;2022-10-03T18:05:06;14.30;99.90
22558;DHT22;11445;53.816;8.902;2022-10-03T18:07:35;14.30;99.90
22558;DHT22;11445;53.816;8.902;2022-10-03T18:10:03;14.20;99.90
22558;DHT22;11445;53.816;8.902;2022-10-03T18:12:34;14.10;99.90
22558;DHT22;11445;53.816;8.902;2022-10-03T18:15:39;14.10;99.90
22558;DHT22;11445;53.816;8.902;2022-10-03T18:18:33;14.10;99.90
22558;DHT22;11445;53.816;8.902;2022-10-03T18:21:15;14.10;99.90
22558;DHT22;11445;53.816;8.902;2022-10-03T18:23:56;14.10;99.90
22558;DHT22;11445;53.816;8.902;2022-10-03T18:26:28;14.00;99.90
22558;DHT22;11445;53.816;8.902;2022-10-03T18:29:09;14.00;99.90
22558;DHT22;11445;53.816;8.902;2022-10-03T18:31:44;14.00;99.90
22558;DHT22;11445;53.816;8.902;2022-10-03T18:34:17;13.90;99.90
22558;DHT22;11445;53.816;8.902;2022-10-03T18:36:47;13.90;99.90
22558;DHT22;11445;53.816;8.902;2022-10-03T18:39:16;13.90;99.90
22558;DHT22;11445;53.816;8.902;2022-10-03T18:41:46;13.80;99.90
22558;DHT22;11445;53.816;8.902;2022-10-03T18:44:17;13.80;99.90
22558;DHT22;11445;53.816;8.902;2022-10-03T18:46:46;13.80;99.90
22558;DHT22;11445;53.816;8.902;2022-10-03T18:49:21;13.80;99.90
22558;DHT22;11445;53.816;8.902;2022-10-03T18:51:51;13.70;99.90
22558;DHT22;11445;53.816;8.902;2022-10-03T18:54:27;13.70;99.90
22558;DHT22;11445;53.816;8.902;2022-10-03T18:57:06;13.60;99.90
22558;DHT22;11445;53.816;8.902;2022-10-03T18:59:42;13.60;99.90
22558;DHT22;11445;53.816;8.902;2022-10-03T19:02:17;13.60;99.90
22558;DHT22;11445;53.816;8.902;2022-10-03T19:04:49;13.50;99.90
22558;DHT22;11445;53.816;8.902;2022-10-03T19:07:20;13.50;99.90
22558;DHT22;11445;53.816;8.902;2022-10-03T19:10:23;13.50;99.90
22558;DHT22;11445;53.816;8.902;2022-10-03T19:12:57;13.50;99.90
22558;DHT22;11445;53.816;8.902;2022-10-03T19:15:38;13.40;99.90
22558;DHT22;11445;53.816;8.902;2022-10-03T19:18:18;13.40;99.90
22558;DHT22;11445;53.816;8.902;2022-10-03T19:20:48;13.40;99.90
22558;DHT22;11445;53.816;8.902;2022-10-03T19:23:18;13.30;99.90
22558;DHT22;11445;53.816;8.902;2022-10-03T19:25:52;13.30;99.90
22558;DHT22;11445;53.816;8.902;2022-10-03T19:28:25;13.30;99.90
22558;DHT22;11445;53.816;8.902;2022-10-03T19:31:03;13.30;99.90
22558;DHT22;11445;53.816;8.902;2022-10-03T19:33:36;13.30;99.90
22558;DHT22;11445;53.816;8.902;2022-10-03T19:36:13;13.20;99.90
22558;DHT22;11445;53.816;8.902;2022-10-03T19:38:43;13.20;99.90
22558;DHT22;11445;53.816;8.902;2022-10-03T19:41:21;13.20;99.90
22558;DHT22;11445;53.816;8.902;2022-10-03T19:43:52;13.20;99.90
22558;DHT22;11445;53.816;8.902;2022-10-03T19:46:33;13.10;99.90
22558;DHT22;11445;53.816;8.902;2022-10-03T19:49:20;13.10;99.90
22558;DHT22;11445;53.816;8.902;2022-10-03T19:51:49;13.10;99.90
22558;DHT22;11445;53.816;8.902;2022-10-03T19:54:29;13.10;99.90
22558;DHT22;11445;53.816;8.902;2022-10-03T19:56:57;13.10;99.90
22558;DHT22;11445;53.816;8.902;2022-10-03T19:59:36;13.00;99.90
22558;DHT22;11445;53.816;8.902;2022-10-03T20:02:10;13.00;99.90
22558;DHT22;11445;53.816;8.902;2022-10-03T20:04:37;13.00;99.90
22558;DHT22;11445;53.816;8.902;2022-10-03T20:07:11;13.00;99.90
22558;DHT22;11445;53.816;8.902;2022-10-03T20:09:53;13.00;99.90
22558;DHT22;11445;53.816;8.902;2022-10-03T20:12:22;13.00;99.90